Saturday, July 26, 2014
19:21 UTC
  |  Log In   |  Register Free
Airport Search:

Shenandoah Valley Regional Airport
(KSHD)

Shenandoah Valley Regional Airport Diagram
No Airport Diagram Available

FAA data valid effective July 24, 2014 until September 18, 2014 (unless otherwise noted).

 
 
 
 
 
 
 
 
 
 
 
 
 
 

Current Aviation Weather for Shenandoah Valley Regional Airport (KSHD)

The most recent METAR observation for KSHD was updated at: 1835 UTC
METAR Summary (Translated METAR)
KSHD
261835Z AUTO 22004KT 10SM SCT039 SCT060 29/17 A3002 RMK AO2 T02860171
KCHO
(22.2 nm SE from KSHD)
261753Z 00000KT 10SM SCT100 29/17 A2998 RMK AO2 SLP145 T02890172 10289 20200 58010
TAF Summary (Translated TAF)
KCHO
(22.2 nm SE from KSHD)
261742Z 2618/2718 22006KT P6SM SCT050 FM270700 00000KT P6SM SCT050 BKN130 FM271200 22004KT 6SM -SHRA VCTS SCT050CB BKN090 FM271400 22005KT 5SM -SHRA VCTS BKN090CB BKN130
  Airport Weather Conditions for KSHD

 Current Weather at SHD
83° F
Partly Cloudy
Southwest winds at 4.6 mph
SHD NOAA Radar

Pressure: 30.02 in
Humidity: 50%
Wind: Southwest at 4.6 MPH (4 KT)
Dew Point: 62.8°F
Visibility: 10.00 mi


Airport Weather Forecast for KSHD

Translated METAR and TAF for KSHD
Translated METAR for KSHD (1914 UTC 26 July 2014)
found at http://aviationweather.gov/adds/metars/
 
METAR text: KSHD 261855Z AUTO 19003KT 10SM SCT041 SCT050 29/17 A3001 RMK AO2 T02860167
Conditions at: KSHD (STAUNTON/SHENAND, VA, US) observed 1855 UTC 26 July 2014
Temperature: 28.6°C (83°F)
Dewpoint: 16.7°C (62°F) [RH = 49%]
Pressure (altimeter): 30.01 inches Hg (1016.3 mb)
Winds: from the S (190 degrees) at 3 MPH (3 knots; 1.6 m/s)
Visibility: 10 or more miles (16+ km)
Ceiling: at least 12,000 feet AGL
Clouds: scattered clouds at 4100 feet AGL
scattered clouds at 5000 feet AGL
Weather: automated observation with no human augmentation;
there may or may not be significant weather present at this time
Translated TAF for KSHD

There is no translated TAF available for this airport

Find All Airport Services Find A Hotel Find A Rental Car Find A Golf Course Find A Restaurant $100 Hamburger



FBO's on the Field
FBO Company Facility Photos Services Transportation Aviation Fuel Prices: Prices include tax
Catering Weather Repair Courtesy Rental Type 100LL JetA JetA+ MOGAS 8087
 
Avnet Shenandoah Valley

This FBO has not yet been rated
FS:Avfuel
Last Updated: Jul-22
Login to update fuel prices
SS:
Contact Avnet Shenandoah ValleyMore FBO Information
 
Add another FBO Facility Photos Catering Weather Repair Courtesy Rental Type 100LL JetA JetA+ MOGAS 8087
Services Transportation Aviation Fuel Prices: Prices include tax


GlobalAir.com Airport Resource Center model-print
model-print
model-print
model-print